createdAt,value
2022-08-23T00:01:29.120Z,2.47
2022-08-23T00:04:01.202Z,2.10
2022-08-23T00:06:29.527Z,2.00
2022-08-23T00:08:56.943Z,2.20
2022-08-23T00:11:24.640Z,2.23
2022-08-23T00:13:51.487Z,2.03
2022-08-23T00:16:18.490Z,2.00
2022-08-23T00:18:47.738Z,2.03
2022-08-23T00:21:16.344Z,2.20
2022-08-23T00:23:43.895Z,2.07
2022-08-23T00:26:11.138Z,2.07
2022-08-23T00:28:38.167Z,1.93
2022-08-23T00:31:05.265Z,2.23
2022-08-23T00:33:32.151Z,2.20
2022-08-23T00:35:59.051Z,1.70
2022-08-23T00:38:34.119Z,2.00
2022-08-23T00:41:03.601Z,1.90
2022-08-23T00:43:58.770Z,2.00
2022-08-23T00:47:04.741Z,1.90
2022-08-23T00:49:33.557Z,2.03
2022-08-23T00:52:00.744Z,2.10
2022-08-23T00:54:29.935Z,2.10
2022-08-23T00:56:59.955Z,2.07
2022-08-23T00:59:27.179Z,1.80
2022-08-23T01:01:54.841Z,2.47
2022-08-23T01:04:21.917Z,2.37
2022-08-23T01:07:02.427Z,2.00
2022-08-23T01:09:29.792Z,2.13
2022-08-23T01:12:00.142Z,2.10
2022-08-23T01:14:44.403Z,2.03
2022-08-23T01:17:16.517Z,2.10
2022-08-23T01:19:49.438Z,2.10
2022-08-23T01:22:22.952Z,2.10
2022-08-23T01:25:08.283Z,2.10
2022-08-23T01:27:42.003Z,2.23
2022-08-23T01:30:15.525Z,2.10
2022-08-23T01:32:51.999Z,2.10
2022-08-23T01:37:56.962Z,2.20
2022-08-23T01:40:24.222Z,2.40
2022-08-23T01:42:51.453Z,2.13
2022-08-23T01:45:18.499Z,2.30
2022-08-23T01:47:45.445Z,2.40
2022-08-23T01:50:14.154Z,2.10
2022-08-23T01:52:46.597Z,2.10
2022-08-23T01:55:15.154Z,2.10
2022-08-23T01:57:46.909Z,2.20
2022-08-23T02:00:18.611Z,2.50
2022-08-23T02:02:47.087Z,2.40
2022-08-23T02:05:17.430Z,2.17
2022-08-23T02:07:47.757Z,2.33
2022-08-23T02:10:17.052Z,2.43
2022-08-23T02:12:44.740Z,2.40
2022-08-23T02:15:16.123Z,2.37
2022-08-23T02:17:44.502Z,2.30
2022-08-23T02:20:11.608Z,2.53
2022-08-23T02:22:39.615Z,2.80
2022-08-23T02:25:07.460Z,2.57
2022-08-23T02:27:35.263Z,2.40
2022-08-23T02:30:02.474Z,2.40
2022-08-23T02:32:30.063Z,3.00
2022-08-23T02:35:05.047Z,2.53
2022-08-23T02:37:34.298Z,2.20
2022-08-23T02:40:01.858Z,2.57
2022-08-23T02:42:29.678Z,2.50
2022-08-23T02:44:56.635Z,2.67
2022-08-23T02:47:23.720Z,2.50
2022-08-23T02:50:07.603Z,2.50
2022-08-23T02:52:35.442Z,2.80
2022-08-23T02:55:02.582Z,2.57
2022-08-23T02:57:31.599Z,2.57
2022-08-23T03:00:01.107Z,2.50
2022-08-23T03:02:28.334Z,2.67
2022-08-23T03:04:55.327Z,2.50
2022-08-23T03:07:22.262Z,2.70
2022-08-23T03:09:49.143Z,2.27
2022-08-23T03:12:16.431Z,2.30
2022-08-23T03:14:52.009Z,2.50
2022-08-23T03:17:20.552Z,2.57
2022-08-23T03:19:48.345Z,2.73
2022-08-23T03:22:15.834Z,2.60
2022-08-23T03:24:42.966Z,2.77
2022-08-23T03:27:10.489Z,2.70
2022-08-23T03:29:38.078Z,2.57
2022-08-23T03:32:05.890Z,2.50
2022-08-23T03:34:36.137Z,2.77
2022-08-23T03:37:03.248Z,2.90
2022-08-23T03:39:30.737Z,2.50
2022-08-23T03:41:59.958Z,2.50
2022-08-23T03:44:30.453Z,2.60
2022-08-23T03:46:57.627Z,2.40
2022-08-23T03:49:26.251Z,2.50
2022-08-23T03:51:55.952Z,2.63
2022-08-23T03:54:23.167Z,2.63
2022-08-23T03:57:02.998Z,2.43
2022-08-23T03:59:34.943Z,2.57
2022-08-23T04:02:04.354Z,2.53
2022-08-23T04:04:31.356Z,2.10
2022-08-23T04:07:23.345Z,2.27
2022-08-23T04:09:55.382Z,2.47
2022-08-23T04:12:25.419Z,2.60
2022-08-23T04:14:53.464Z,2.73
2022-08-23T04:17:21.620Z,2.40
2022-08-23T04:19:49.629Z,2.63
2022-08-23T04:22:19.003Z,2.60
2022-08-23T04:24:47.046Z,2.30
2022-08-23T04:27:14.674Z,2.50
2022-08-23T04:29:42.692Z,2.63
2022-08-23T04:32:11.994Z,2.33
2022-08-23T04:34:42.380Z,2.83
2022-08-23T04:37:14.091Z,2.60
2022-08-23T04:39:59.663Z,2.70
2022-08-23T04:42:32.765Z,2.43
2022-08-23T04:45:01.253Z,2.67
2022-08-23T04:47:28.269Z,2.67
2022-08-23T04:49:58.156Z,2.80
2022-08-23T04:52:25.091Z,2.60
2022-08-23T04:54:52.510Z,2.90
2022-08-23T04:57:36.219Z,2.57
2022-08-23T05:00:04.864Z,3.00
2022-08-23T05:02:34.280Z,2.90
2022-08-23T05:05:01.748Z,2.93
2022-08-23T05:07:34.803Z,2.60
2022-08-23T05:10:15.195Z,2.70
2022-08-23T05:12:47.255Z,2.70
2022-08-23T05:15:15.355Z,2.90
2022-08-23T05:17:46.682Z,2.87
2022-08-23T05:20:13.679Z,2.70
2022-08-23T05:22:42.476Z,2.50
2022-08-23T05:25:23.687Z,2.90
2022-08-23T05:27:56.602Z,2.80
2022-08-23T05:30:23.546Z,2.70
2022-08-23T05:32:52.574Z,2.77
2022-08-23T05:35:19.959Z,3.13
2022-08-23T05:37:46.895Z,2.90
2022-08-23T05:40:16.414Z,2.40
2022-08-23T05:42:57.945Z,2.80
2022-08-23T05:45:25.814Z,2.90
2022-08-23T05:47:55.759Z,2.70
2022-08-23T05:50:37.856Z,2.80
2022-08-23T05:53:05.745Z,2.70
2022-08-23T05:55:34.669Z,2.90
2022-08-23T05:58:31.419Z,2.80
2022-08-23T06:00:58.706Z,2.77
2022-08-23T06:03:25.828Z,3.00
2022-08-23T06:05:58.035Z,3.57
2022-08-23T06:08:25.723Z,4.07
2022-08-23T06:11:18.165Z,3.57
2022-08-23T06:13:56.618Z,4.07
2022-08-23T06:16:30.030Z,5.53
2022-08-23T06:18:58.272Z,4.50
2022-08-23T06:21:44.369Z,4.07
2022-08-23T06:24:12.343Z,3.53
2022-08-23T06:26:48.345Z,3.60
2022-08-23T06:29:18.078Z,3.80
2022-08-23T06:31:50.162Z,3.87
2022-08-23T06:34:33.384Z,3.50
2022-08-23T06:37:21.994Z,3.90
2022-08-23T06:40:18.108Z,3.93
2022-08-23T06:42:48.622Z,4.10
2022-08-23T06:45:20.874Z,4.77
2022-08-23T06:48:01.145Z,6.53
2022-08-23T06:50:34.073Z,7.77
2022-08-23T06:53:19.527Z,7.43
2022-08-23T06:56:09.555Z,7.20
2022-08-23T06:58:47.775Z,7.00
2022-08-23T07:01:47.964Z,6.40
2022-08-23T07:04:39.541Z,6.30
2022-08-23T07:07:11.377Z,6.07
2022-08-23T07:09:39.802Z,5.53
2022-08-23T07:12:07.895Z,5.90
2022-08-23T07:14:38.668Z,5.40
2022-08-23T07:17:06.252Z,5.60
2022-08-23T07:19:35.441Z,6.07
2022-08-23T07:22:05.578Z,5.50
2022-08-23T07:24:33.953Z,5.67
2022-08-23T07:27:09.691Z,5.47
2022-08-23T07:29:51.077Z,5.77
2022-08-23T07:32:18.673Z,5.30
2022-08-23T07:34:46.500Z,5.37
2022-08-23T07:37:15.694Z,5.67
2022-08-23T07:39:44.043Z,5.70
2022-08-23T07:42:23.441Z,5.70
2022-08-23T07:44:54.103Z,5.10
2022-08-23T07:47:23.564Z,5.47
2022-08-23T07:49:51.944Z,5.40
2022-08-23T07:52:19.162Z,5.17
2022-08-23T07:54:49.474Z,4.80
2022-08-23T07:57:35.330Z,5.20
2022-08-23T08:00:12.461Z,4.97
2022-08-23T08:02:51.934Z,5.23
2022-08-23T08:05:27.517Z,4.80
2022-08-23T08:07:56.507Z,4.67
2022-08-23T08:10:23.743Z,4.80
2022-08-23T08:12:50.836Z,4.80
2022-08-23T08:15:20.594Z,4.33
2022-08-23T08:17:54.455Z,4.90
2022-08-23T08:20:22.842Z,4.17
2022-08-23T08:23:07.532Z,4.43
2022-08-23T08:26:05.487Z,3.93
2022-08-23T08:28:35.649Z,4.13
2022-08-23T08:31:03.227Z,3.77
2022-08-23T08:33:34.355Z,3.90
2022-08-23T08:36:04.022Z,3.67
2022-08-23T08:38:38.799Z,2.90
2022-08-23T08:41:19.272Z,2.87
2022-08-23T08:43:52.165Z,3.00
2022-08-23T08:46:34.906Z,3.23
2022-08-23T08:49:05.153Z,2.80
2022-08-23T08:51:59.606Z,2.97
2022-08-23T08:54:29.237Z,2.77
2022-08-23T08:56:59.351Z,2.93
2022-08-23T08:59:36.550Z,2.80
2022-08-23T09:02:07.215Z,2.60
2022-08-23T09:04:54.807Z,2.73
2022-08-23T09:08:00.869Z,2.77
2022-08-23T09:10:45.237Z,2.60
2022-08-23T09:13:57.657Z,2.80
2022-08-23T09:17:05.301Z,3.17
2022-08-23T09:19:37.503Z,2.97
2022-08-23T09:22:13.780Z,2.80
2022-08-23T09:24:41.938Z,3.10
2022-08-23T09:27:19.696Z,3.20
2022-08-23T09:29:57.673Z,2.83
2022-08-23T09:32:39.562Z,3.20
2022-08-23T09:35:12.802Z,3.00
2022-08-23T09:38:17.110Z,3.10
2022-08-23T09:40:48.632Z,3.00
2022-08-23T09:43:23.659Z,2.80
2022-08-23T09:45:50.949Z,2.70
2022-08-23T09:48:40.661Z,2.60
2022-08-23T09:51:25.251Z,2.73
2022-08-23T09:54:27.872Z,2.57
2022-08-23T09:56:58.812Z,2.83
2022-08-23T09:59:27.051Z,2.87
2022-08-23T10:02:02.343Z,2.60
2022-08-23T10:04:47.286Z,3.00
2022-08-23T10:07:40.211Z,2.80
2022-08-23T10:10:20.784Z,2.97
2022-08-23T10:12:48.032Z,2.80
2022-08-23T10:15:17.384Z,2.77
2022-08-23T10:18:15.900Z,2.90
2022-08-23T10:20:56.838Z,2.97
2022-08-23T10:23:34.179Z,3.17
2022-08-23T10:26:02.235Z,2.80
2022-08-23T10:29:19.126Z,3.00
2022-08-23T10:32:05.220Z,2.93
2022-08-23T10:34:50.660Z,2.87
2022-08-23T10:37:46.280Z,3.10
2022-08-23T10:40:40.439Z,3.27
2022-08-23T10:43:39.978Z,3.03
2022-08-23T10:46:08.758Z,3.20
2022-08-23T10:48:51.687Z,3.10
2022-08-23T10:51:31.775Z,2.83
2022-08-23T10:54:06.485Z,3.00
2022-08-23T10:56:35.479Z,3.23
2022-08-23T10:59:11.110Z,3.20
2022-08-23T11:02:01.613Z,2.90
2022-08-23T11:04:54.359Z,3.07
2022-08-23T11:07:31.609Z,2.83
2022-08-23T11:10:10.020Z,3.13
2022-08-23T11:13:06.951Z,3.30
2022-08-23T11:15:45.320Z,3.37
2022-08-23T11:18:30.096Z,2.73
2022-08-23T11:21:25.072Z,2.77
2022-08-23T11:24:00.133Z,3.20
2022-08-23T11:26:30.804Z,3.37
2022-08-23T11:29:08.108Z,2.83
2022-08-23T11:32:28.065Z,2.80
2022-08-23T11:35:12.246Z,2.97
2022-08-23T11:37:57.329Z,3.20
2022-08-23T11:40:55.442Z,3.23
2022-08-23T11:43:34.492Z,3.23
2022-08-23T11:46:22.006Z,3.20
2022-08-23T11:49:11.571Z,3.47
2022-08-23T11:51:57.191Z,3.30
2022-08-23T11:54:34.632Z,3.40
2022-08-23T11:57:36.350Z,3.10
2022-08-23T12:00:13.701Z,3.73
2022-08-23T12:03:02.277Z,2.97
2022-08-23T12:05:55.596Z,3.00
2022-08-23T12:08:50.506Z,2.90
2022-08-23T12:11:19.901Z,3.10
2022-08-23T12:13:52.148Z,3.13
2022-08-23T12:16:24.081Z,3.00
2022-08-23T12:18:51.255Z,3.00
2022-08-23T12:21:20.873Z,2.90
2022-08-23T12:23:52.060Z,3.17
2022-08-23T12:26:42.525Z,2.83
2022-08-23T12:29:28.124Z,3.20
2022-08-23T12:32:30.496Z,3.22
2022-08-23T12:35:16.506Z,3.17
2022-08-23T12:37:51.499Z,2.97
2022-08-23T12:40:36.853Z,3.30
2022-08-23T12:43:22.453Z,3.13
2022-08-23T12:45:56.656Z,2.80
2022-08-23T12:48:27.262Z,2.90
2022-08-23T12:51:02.152Z,3.17
2022-08-23T12:53:44.007Z,3.08
2022-08-23T12:56:31.689Z,3.10
2022-08-23T12:59:04.690Z,2.85
2022-08-23T13:01:35.799Z,3.30
2022-08-23T13:04:14.287Z,3.13
2022-08-23T13:06:45.509Z,3.30
2022-08-23T13:09:33.147Z,3.20
2022-08-23T13:12:00.852Z,3.00
2022-08-23T13:14:35.592Z,3.10
2022-08-23T13:17:27.251Z,2.95
2022-08-23T13:20:01.688Z,3.10
2022-08-23T13:22:31.063Z,3.95
2022-08-23T13:25:28.694Z,3.03
2022-08-23T13:27:54.565Z,3.00
2022-08-23T13:30:23.725Z,3.00
2022-08-23T13:32:53.176Z,3.17
2022-08-23T13:35:39.240Z,3.10
2022-08-23T13:38:22.277Z,3.10
2022-08-23T13:40:56.936Z,3.10
2022-08-23T13:43:30.141Z,3.10
2022-08-23T13:46:01.011Z,3.15
2022-08-23T13:48:32.843Z,3.38
2022-08-23T13:51:27.656Z,3.13
2022-08-23T13:53:57.092Z,3.33
2022-08-23T13:56:25.037Z,3.20
2022-08-23T13:59:00.311Z,3.00
2022-08-23T14:01:28.098Z,3.00
2022-08-23T14:03:55.473Z,3.15
2022-08-23T14:06:23.644Z,2.75
2022-08-23T14:08:50.488Z,3.75
2022-08-23T14:11:17.715Z,3.13
2022-08-23T14:13:47.817Z,3.15
2022-08-23T14:16:34.390Z,3.15
2022-08-23T14:20:31.422Z,3.05
2022-08-23T14:21:51.087Z,3.45
2022-08-23T14:24:20.319Z,3.33
2022-08-23T14:26:51.726Z,3.28
2022-08-23T14:29:24.624Z,3.40
2022-08-23T14:31:52.727Z,2.97
2022-08-23T14:34:20.953Z,3.22
2022-08-23T14:39:44.836Z,3.15
2022-08-23T14:42:15.245Z,3.90
2022-08-23T14:44:42.385Z,3.60
2022-08-23T14:47:09.321Z,3.55
2022-08-23T14:49:36.292Z,2.90
2022-08-23T14:52:04.368Z,3.63
2022-08-23T14:54:33.071Z,3.88
2022-08-23T14:57:06.189Z,3.10
2022-08-23T14:59:33.491Z,3.25
2022-08-23T15:02:01.995Z,2.88
2022-08-23T15:04:34.538Z,3.25
2022-08-23T15:07:19.471Z,3.20
2022-08-23T15:09:51.551Z,2.92
2022-08-23T15:15:12.686Z,3.20
2022-08-23T15:17:47.560Z,2.83
2022-08-23T15:20:15.418Z,2.80
2022-08-23T15:22:44.938Z,2.97
2022-08-23T15:25:13.880Z,3.25
2022-08-23T15:27:42.713Z,3.28
2022-08-23T15:30:11.075Z,3.22
2022-08-23T15:32:38.082Z,2.97
2022-08-23T15:35:07.281Z,3.13
2022-08-23T15:37:35.934Z,3.20
2022-08-23T15:40:04.516Z,2.92
2022-08-23T15:42:31.663Z,3.00
2022-08-23T15:44:58.753Z,2.75
2022-08-23T15:47:34.084Z,2.92
2022-08-23T15:50:01.674Z,2.95
2022-08-23T15:52:28.599Z,3.20
2022-08-23T15:54:55.536Z,3.00
2022-08-23T15:57:27.904Z,3.10
2022-08-23T15:59:56.657Z,3.28
2022-08-23T16:02:23.617Z,3.33
2022-08-23T16:04:50.558Z,3.25
2022-08-23T16:07:18.391Z,3.78
2022-08-23T16:09:45.525Z,3.30
2022-08-23T16:12:12.498Z,3.40
2022-08-23T16:14:39.415Z,3.10
2022-08-23T16:17:08.201Z,3.25
2022-08-23T16:19:35.229Z,3.45
2022-08-23T16:22:02.628Z,3.47
2022-08-23T16:24:29.506Z,3.45
2022-08-23T16:26:56.711Z,3.22
2022-08-23T16:29:23.709Z,3.10
2022-08-23T16:31:50.772Z,3.10
2022-08-23T16:34:19.928Z,3.53
2022-08-23T16:36:50.579Z,3.28
2022-08-23T16:39:18.024Z,2.88
2022-08-23T16:41:45.229Z,3.35
2022-08-23T16:44:12.209Z,3.05
2022-08-23T16:46:43.942Z,3.40
2022-08-23T16:49:12.759Z,3.25
2022-08-23T16:51:39.905Z,3.17
2022-08-23T16:54:08.378Z,3.13
2022-08-23T16:56:37.625Z,3.10
2022-08-23T16:59:06.096Z,3.08
2022-08-23T17:01:49.718Z,2.67
2022-08-23T17:04:18.480Z,3.22
2022-08-23T17:06:46.290Z,3.05
2022-08-23T17:09:14.467Z,3.30
2022-08-23T17:11:43.172Z,2.70
2022-08-23T17:14:10.704Z,3.13
2022-08-23T17:16:37.597Z,2.70
2022-08-23T17:19:05.224Z,2.85
2022-08-23T17:21:32.110Z,3.13
2022-08-23T17:23:59.061Z,2.88
2022-08-23T17:26:25.932Z,2.78
2022-08-23T17:28:53.540Z,3.20
2022-08-23T17:31:20.746Z,2.92
2022-08-23T17:33:47.712Z,2.75
2022-08-23T17:36:29.056Z,2.97
2022-08-23T17:38:57.273Z,2.85
2022-08-23T17:41:25.952Z,2.90
2022-08-23T17:43:52.950Z,2.90
2022-08-23T17:46:20.638Z,3.08
2022-08-23T17:48:47.590Z,3.03
2022-08-23T17:51:14.517Z,3.03
2022-08-23T17:53:41.716Z,3.13
2022-08-23T17:56:12.195Z,2.95
2022-08-23T17:58:39.461Z,3.17
2022-08-23T18:01:06.689Z,3.00
2022-08-23T18:03:33.759Z,2.88
2022-08-23T18:06:01.259Z,2.95
2022-08-23T18:08:43.789Z,2.92
2022-08-23T18:11:11.063Z,3.03
2022-08-23T18:13:38.569Z,2.90
2022-08-23T18:16:06.267Z,2.58
2022-08-23T18:18:33.845Z,2.50
2022-08-23T18:21:06.112Z,2.45
2022-08-23T18:23:33.200Z,2.58
2022-08-23T18:26:06.303Z,2.30
2022-08-23T18:28:33.242Z,2.38
2022-08-23T18:31:03.513Z,2.38
2022-08-23T18:33:46.392Z,2.60
2022-08-23T18:36:15.588Z,2.50
2022-08-23T18:38:42.505Z,2.63
2022-08-23T18:41:09.372Z,2.70
2022-08-23T18:43:37.242Z,2.63
2022-08-23T18:46:05.683Z,2.30
2022-08-23T18:48:33.602Z,2.50
2022-08-23T18:51:01.103Z,2.10
2022-08-23T18:53:28.721Z,2.47
2022-08-23T18:55:55.602Z,2.23
2022-08-23T18:58:22.992Z,2.10
2022-08-23T19:00:52.710Z,2.30
2022-08-23T19:03:20.435Z,2.27
2022-08-23T19:05:47.492Z,1.90
2022-08-23T19:08:15.059Z,2.17
2022-08-23T19:10:43.394Z,2.13
2022-08-23T19:13:11.802Z,2.20
2022-08-23T19:15:40.395Z,2.00
2022-08-23T19:18:07.425Z,2.17
2022-08-23T19:20:34.231Z,2.00
2022-08-23T19:23:01.403Z,2.20
2022-08-23T19:25:31.681Z,2.20
2022-08-23T19:27:58.763Z,2.10
2022-08-23T19:30:28.333Z,2.10
2022-08-23T19:32:56.557Z,1.80
2022-08-23T19:35:23.641Z,1.83
2022-08-23T19:37:50.641Z,2.20
2022-08-23T19:40:17.956Z,1.90
2022-08-23T19:42:44.955Z,2.00
2022-08-23T19:45:12.753Z,1.83
2022-08-23T19:47:40.347Z,1.90
2022-08-23T19:50:09.637Z,1.97
2022-08-23T19:52:36.673Z,2.00
2022-08-23T19:55:05.811Z,1.80
2022-08-23T19:57:35.521Z,2.20
2022-08-23T20:00:09.344Z,1.87
2022-08-23T20:02:36.268Z,1.97
2022-08-23T20:05:03.966Z,2.30
2022-08-23T20:07:31.240Z,1.90
2022-08-23T20:09:58.251Z,1.80
2022-08-23T20:12:27.644Z,1.97
2022-08-23T20:14:55.225Z,1.97
2022-08-23T20:17:23.255Z,2.00
2022-08-23T20:19:50.279Z,1.90
2022-08-23T20:22:35.816Z,2.00
2022-08-23T20:25:03.775Z,1.93
2022-08-23T20:27:31.368Z,1.80
2022-08-23T20:30:00.009Z,1.90
2022-08-23T20:32:27.704Z,1.97
2022-08-23T20:34:54.555Z,1.70
2022-08-23T20:37:21.745Z,2.10
2022-08-23T20:39:48.778Z,2.00
2022-08-23T20:42:16.374Z,1.90
2022-08-23T20:44:43.368Z,1.90
2022-08-23T20:47:11.109Z,2.00
2022-08-23T20:49:38.311Z,1.97
2022-08-23T20:52:06.068Z,2.00
2022-08-23T20:54:33.129Z,1.80
2022-08-23T20:57:00.131Z,1.73
2022-08-23T20:59:27.457Z,2.00
2022-08-23T21:01:54.497Z,2.00
2022-08-23T21:04:21.452Z,1.80
2022-08-23T21:06:57.397Z,1.70
2022-08-23T21:09:29.518Z,1.70
2022-08-23T21:11:57.158Z,1.63
2022-08-23T21:14:24.359Z,1.50
2022-08-23T21:16:51.381Z,1.70
2022-08-23T21:19:19.077Z,1.67
2022-08-23T21:21:46.542Z,1.70
2022-08-23T21:24:14.017Z,1.80
2022-08-23T21:26:41.413Z,1.80
2022-08-23T21:29:09.119Z,1.90
2022-08-23T21:31:36.734Z,1.70
2022-08-23T21:38:26.276Z,1.80
2022-08-23T21:41:38.518Z,1.53
2022-08-23T21:44:52.984Z,1.50
2022-08-23T22:24:26.588Z,1.60
2022-08-23T22:37:23.679Z,1.40
2022-08-23T22:39:50.516Z,1.83
2022-08-23T22:42:17.531Z,1.50
2022-08-23T22:44:44.378Z,1.60
2022-08-23T22:47:11.510Z,1.70
2022-08-23T22:49:38.565Z,1.53
2022-08-23T22:52:05.581Z,1.60
2022-08-23T22:54:32.738Z,1.47
2022-08-23T22:56:59.596Z,1.53
2022-08-23T22:59:32.372Z,1.53
2022-08-23T23:02:03.253Z,1.60
2022-08-23T23:04:32.384Z,1.60
2022-08-23T23:06:59.827Z,1.80
2022-08-23T23:09:27.140Z,1.50
2022-08-23T23:11:54.454Z,1.40
2022-08-23T23:14:22.240Z,1.77
2022-08-23T23:16:50.094Z,1.57
2022-08-23T23:19:36.266Z,1.60
2022-08-23T23:22:04.498Z,1.60
2022-08-23T23:24:34.556Z,1.70
2022-08-23T23:27:02.554Z,1.67
2022-08-23T23:29:30.550Z,1.67
2022-08-23T23:31:57.984Z,1.80
2022-08-23T23:34:26.509Z,1.90
2022-08-23T23:36:57.622Z,1.70
2022-08-23T23:39:25.217Z,1.90
2022-08-23T23:41:52.146Z,1.80
2022-08-23T23:44:24.309Z,1.70
2022-08-23T23:46:58.564Z,1.60
2022-08-23T23:49:32.623Z,2.07
2022-08-23T23:52:01.484Z,2.00
2022-08-23T23:54:28.469Z,1.77
2022-08-23T23:56:55.728Z,1.80
2022-08-23T23:59:22.593Z,1.90
